createdAt,value
2023-05-01T00:00:31.806Z,25.22
2023-05-01T00:01:31.727Z,25.21
2023-05-01T00:02:31.729Z,25.22
2023-05-01T00:03:31.752Z,25.22
2023-05-01T00:04:31.523Z,25.22
2023-05-01T00:05:31.440Z,25.22
2023-05-01T00:06:31.400Z,25.21
2023-05-01T00:07:31.302Z,25.21
2023-05-01T00:08:31.237Z,25.22
2023-05-01T00:09:31.163Z,25.22
2023-05-01T00:10:31.091Z,25.22
2023-05-01T00:11:31.029Z,25.21
2023-05-01T00:12:30.952Z,25.24
2023-05-01T00:13:30.883Z,25.22
2023-05-01T00:14:30.823Z,25.20
2023-05-01T00:15:30.751Z,25.22
2023-05-01T00:16:30.707Z,25.22
2023-05-01T00:17:30.637Z,25.22
2023-05-01T00:18:30.548Z,25.22
2023-05-01T00:19:30.474Z,25.22
2023-05-01T00:20:30.406Z,25.22
2023-05-01T00:21:30.337Z,25.21
2023-05-01T00:22:30.278Z,25.21
2023-05-01T00:23:30.198Z,25.24
2023-05-01T00:24:30.133Z,25.24
2023-05-01T00:25:30.053Z,25.20
2023-05-01T00:26:30.008Z,25.22
2023-05-01T00:27:29.935Z,25.21
2023-05-01T00:28:29.851Z,25.22
2023-05-01T00:29:29.779Z,25.22
2023-05-01T00:30:29.704Z,25.21
2023-05-01T00:31:29.722Z,25.22
2023-05-01T00:32:29.589Z,25.22
2023-05-01T00:33:29.497Z,25.21
2023-05-01T00:34:29.423Z,25.21
2023-05-01T00:35:29.370Z,25.20
2023-05-01T00:36:29.280Z,25.21
2023-05-01T00:37:29.212Z,25.18
2023-05-01T00:38:29.154Z,25.22
2023-05-01T00:39:29.078Z,25.20
2023-05-01T00:40:29.015Z,25.20
2023-05-01T00:41:28.945Z,25.20
2023-05-01T00:42:28.883Z,25.20
2023-05-01T00:43:28.820Z,25.21
2023-05-01T00:44:28.739Z,25.18
2023-05-01T00:45:28.776Z,25.18
2023-05-01T00:46:28.739Z,25.20
2023-05-01T00:47:28.587Z,25.20
2023-05-01T00:48:28.474Z,25.17
2023-05-01T00:49:28.401Z,25.22
2023-05-01T00:50:28.338Z,25.21
2023-05-01T00:51:28.290Z,25.20
2023-05-01T00:52:28.219Z,25.21
2023-05-01T00:53:28.147Z,25.20
2023-05-01T00:54:28.085Z,25.22
2023-05-01T00:55:28.016Z,25.20
2023-05-01T00:56:27.950Z,25.20
2023-05-01T00:57:27.889Z,25.18
2023-05-01T00:58:27.864Z,25.20
2023-05-01T00:59:27.748Z,25.21
2023-05-01T01:00:27.685Z,25.20
2023-05-01T01:01:27.632Z,25.20
2023-05-01T01:02:27.583Z,25.18
2023-05-01T01:03:27.491Z,25.18
2023-05-01T01:04:27.445Z,25.17
2023-05-01T01:05:27.355Z,25.18
2023-05-01T01:06:27.318Z,25.18
2023-05-01T01:07:27.217Z,25.18
2023-05-01T01:08:27.178Z,25.15
2023-05-01T01:09:27.082Z,25.20
2023-05-01T01:10:27.007Z,25.18
2023-05-01T01:11:26.950Z,25.18
2023-05-01T01:12:26.881Z,25.15
2023-05-01T01:13:26.823Z,25.17
2023-05-01T01:14:26.744Z,25.17
2023-05-01T01:15:26.669Z,25.15
2023-05-01T01:16:26.617Z,25.18
2023-05-01T01:17:26.561Z,25.18
2023-05-01T01:18:26.459Z,25.18
2023-05-01T01:19:26.381Z,25.17
2023-05-01T01:20:26.321Z,25.17
2023-05-01T01:21:26.315Z,25.18
2023-05-01T01:22:26.184Z,25.17
2023-05-01T01:23:26.111Z,25.20
2023-05-01T01:24:26.034Z,25.18
2023-05-01T01:25:25.962Z,25.18
2023-05-01T01:26:25.886Z,25.15
2023-05-01T01:27:25.824Z,25.17
2023-05-01T01:28:25.748Z,25.18
2023-05-01T01:29:25.733Z,25.18
2023-05-01T01:30:25.639Z,25.15
2023-05-01T01:31:25.565Z,25.15
2023-05-01T01:32:25.521Z,25.18
2023-05-01T01:33:25.453Z,25.17
2023-05-01T01:34:25.377Z,25.17
2023-05-01T01:35:25.310Z,25.15
2023-05-01T01:36:25.257Z,25.18
2023-05-01T01:37:25.197Z,25.17
2023-05-01T01:38:25.128Z,25.15
2023-05-01T01:39:25.072Z,25.18
2023-05-01T01:40:25.008Z,25.15
2023-05-01T01:41:24.934Z,25.15
2023-05-01T01:42:24.879Z,25.18
2023-05-01T01:43:24.820Z,25.15
2023-05-01T01:44:24.752Z,25.17
2023-05-01T01:45:24.674Z,25.15
2023-05-01T01:46:24.631Z,25.17
2023-05-01T01:47:24.548Z,25.17
2023-05-01T01:48:24.475Z,25.15
2023-05-01T01:49:24.442Z,25.14
2023-05-01T01:50:24.358Z,25.15
2023-05-01T01:51:24.278Z,25.14
2023-05-01T01:52:24.218Z,25.18
2023-05-01T01:53:24.155Z,25.17
2023-05-01T01:54:24.100Z,25.15
2023-05-01T01:55:24.056Z,25.17
2023-05-01T01:56:23.984Z,25.15
2023-05-01T01:57:23.932Z,25.17
2023-05-01T01:58:23.871Z,25.15
2023-05-01T01:59:23.814Z,25.13
2023-05-01T02:00:23.762Z,25.11
2023-05-01T02:01:23.866Z,25.14
2023-05-01T02:02:23.714Z,25.13
2023-05-01T02:03:23.689Z,25.13
2023-05-01T02:04:23.519Z,25.14
2023-05-01T02:05:23.471Z,25.14
2023-05-01T02:06:23.449Z,25.14
2023-05-01T02:07:23.343Z,25.13
2023-05-01T02:08:23.276Z,25.14
2023-05-01T02:09:23.215Z,25.13
2023-05-01T02:10:23.210Z,25.14
2023-05-01T02:11:23.098Z,25.13
2023-05-01T02:12:23.035Z,25.15
2023-05-01T02:13:22.970Z,25.13
2023-05-01T02:14:22.900Z,25.13
2023-05-01T02:15:22.836Z,25.14
2023-05-01T02:16:22.780Z,25.13
2023-05-01T02:17:22.714Z,25.13
2023-05-01T02:18:22.626Z,25.14
2023-05-01T02:19:22.558Z,25.14
2023-05-01T02:20:22.473Z,25.13
2023-05-01T02:21:22.418Z,25.14
2023-05-01T02:22:22.350Z,25.11
2023-05-01T02:23:22.284Z,25.13
2023-05-01T02:24:22.217Z,25.14
2023-05-01T02:25:22.168Z,25.13
2023-05-01T02:26:22.107Z,25.13
2023-05-01T02:27:22.039Z,25.11
2023-05-01T02:28:21.998Z,25.13
2023-05-01T02:29:21.926Z,25.14
2023-05-01T02:30:21.866Z,25.11
2023-05-01T02:31:21.815Z,25.13
2023-05-01T02:32:21.725Z,25.13
2023-05-01T02:33:21.624Z,25.11
2023-05-01T02:34:21.568Z,25.14
2023-05-01T02:35:21.523Z,25.10
2023-05-01T02:36:21.456Z,25.11
2023-05-01T02:37:21.374Z,25.13
2023-05-01T02:38:21.321Z,25.11
2023-05-01T02:39:21.262Z,25.11
2023-05-01T02:40:21.206Z,25.11
2023-05-01T02:41:21.142Z,25.13
2023-05-01T02:42:21.075Z,25.11
2023-05-01T02:43:21.036Z,25.11
2023-05-01T02:44:20.957Z,25.13
2023-05-01T02:45:20.949Z,25.11
2023-05-01T02:46:20.916Z,25.10
2023-05-01T02:47:20.839Z,25.11
2023-05-01T02:48:20.718Z,25.11
2023-05-01T02:49:20.650Z,25.10
2023-05-01T02:50:20.591Z,25.10
2023-05-01T02:51:20.538Z,25.11
2023-05-01T02:52:20.478Z,25.13
2023-05-01T02:53:20.413Z,25.09
2023-05-01T02:54:20.347Z,25.11
2023-05-01T02:55:20.288Z,25.10
2023-05-01T02:56:20.224Z,25.13
2023-05-01T02:57:20.162Z,25.11
2023-05-01T02:58:20.082Z,25.11
2023-05-01T02:59:20.000Z,25.13
2023-05-01T03:00:19.948Z,25.10
2023-05-01T03:01:19.912Z,25.11
2023-05-01T03:02:19.812Z,25.10
2023-05-01T03:03:19.773Z,25.10
2023-05-01T03:04:19.729Z,25.11
2023-05-01T03:05:19.629Z,25.10
2023-05-01T03:06:19.637Z,25.09
2023-05-01T03:07:19.501Z,25.10
2023-05-01T03:08:19.427Z,25.10
2023-05-01T03:09:19.374Z,25.10
2023-05-01T03:10:19.309Z,25.10
2023-05-01T03:11:19.257Z,25.07
2023-05-01T03:12:19.191Z,25.06
2023-05-01T03:13:19.133Z,25.10
2023-05-01T03:14:19.064Z,25.10
2023-05-01T03:15:19.013Z,25.10
2023-05-01T03:16:19.046Z,25.07
2023-05-01T03:17:18.879Z,25.07
2023-05-01T03:18:18.818Z,25.09
2023-05-01T03:19:18.753Z,25.13
2023-05-01T03:20:18.694Z,25.09
2023-05-01T03:21:18.639Z,25.10
2023-05-01T03:22:18.579Z,25.10
2023-05-01T03:23:18.522Z,25.10
2023-05-01T03:24:18.458Z,25.09
2023-05-01T03:25:18.483Z,25.07
2023-05-01T03:26:18.354Z,25.09
2023-05-01T03:27:18.273Z,25.09
2023-05-01T03:28:18.223Z,25.10
2023-05-01T03:29:18.160Z,25.07
2023-05-01T03:30:18.100Z,25.09
2023-05-01T03:31:18.035Z,25.09
2023-05-01T03:32:18.105Z,25.10
2023-05-01T03:33:17.920Z,25.10
2023-05-01T03:34:17.848Z,25.07
2023-05-01T03:35:17.852Z,25.07
2023-05-01T03:36:17.737Z,25.07
2023-05-01T03:37:17.686Z,25.09
2023-05-01T03:38:17.646Z,25.06
2023-05-01T03:39:17.588Z,25.09
2023-05-01T03:40:17.513Z,25.09
2023-05-01T03:41:17.452Z,25.07
2023-05-01T03:42:17.407Z,25.07
2023-05-01T03:43:17.355Z,25.06
2023-05-01T03:44:17.295Z,25.06
2023-05-01T03:45:17.237Z,25.07
2023-05-01T03:46:17.289Z,25.07
2023-05-01T03:47:17.134Z,25.06
2023-05-01T03:48:17.089Z,25.06
2023-05-01T03:49:17.049Z,25.06
2023-05-01T03:50:16.972Z,25.06
2023-05-01T03:51:16.909Z,25.06
2023-05-01T03:52:16.860Z,25.07
2023-05-01T03:53:16.804Z,25.09
2023-05-01T03:54:16.759Z,25.06
2023-05-01T03:55:16.723Z,25.06
2023-05-01T03:56:16.646Z,25.07
2023-05-01T03:57:16.604Z,25.07
2023-05-01T03:58:16.543Z,25.03
2023-05-01T03:59:16.482Z,25.07
2023-05-01T04:00:16.421Z,25.04
2023-05-01T04:01:16.370Z,25.06
2023-05-01T04:02:16.325Z,25.06
2023-05-01T04:03:17.288Z,25.06
2023-05-01T04:04:16.227Z,25.07
2023-05-01T04:05:16.145Z,25.04
2023-05-01T04:06:16.140Z,25.06
2023-05-01T04:07:16.021Z,25.06
2023-05-01T04:08:16.008Z,25.07
2023-05-01T04:09:15.925Z,25.06
2023-05-01T04:10:15.883Z,25.06
2023-05-01T04:11:15.816Z,25.07
2023-05-01T04:12:15.775Z,25.04
2023-05-01T04:13:15.715Z,25.04
2023-05-01T04:14:15.727Z,25.06
2023-05-01T04:15:15.755Z,25.03
2023-05-01T04:16:15.596Z,25.04
2023-05-01T04:17:15.519Z,25.04
2023-05-01T04:18:15.509Z,25.06
2023-05-01T04:19:15.412Z,25.06
2023-05-01T04:20:15.362Z,25.06
2023-05-01T04:21:15.306Z,25.03
2023-05-01T04:22:15.254Z,25.04
2023-05-01T04:23:15.211Z,25.07
2023-05-01T04:24:15.154Z,25.03
2023-05-01T04:25:15.105Z,25.07
2023-05-01T04:26:15.060Z,25.07
2023-05-01T04:27:14.995Z,25.04
2023-05-01T04:28:15.006Z,25.04
2023-05-01T04:29:14.883Z,25.04
2023-05-01T04:30:14.838Z,25.04
2023-05-01T04:31:14.800Z,25.03
2023-05-01T04:32:14.888Z,25.02
2023-05-01T04:33:14.684Z,25.04
2023-05-01T04:34:14.623Z,25.04
2023-05-01T04:35:14.583Z,25.03
2023-05-01T04:36:14.516Z,25.04
2023-05-01T04:37:14.478Z,25.04
2023-05-01T04:38:14.402Z,25.06
2023-05-01T04:39:14.345Z,25.06
2023-05-01T04:40:14.301Z,25.03
2023-05-01T04:41:14.223Z,25.07
2023-05-01T04:42:14.183Z,25.06
2023-05-01T04:43:14.114Z,25.04
2023-05-01T04:44:14.049Z,25.04
2023-05-01T04:45:14.016Z,25.06
2023-05-01T04:46:14.000Z,25.04
2023-05-01T04:47:13.908Z,25.04
2023-05-01T04:48:13.865Z,25.04
2023-05-01T04:49:13.810Z,25.04
2023-05-01T04:50:13.750Z,25.02
2023-05-01T04:51:13.708Z,25.06
2023-05-01T04:52:13.654Z,25.04
2023-05-01T04:53:13.615Z,25.04
2023-05-01T04:54:13.542Z,25.04
2023-05-01T04:55:13.504Z,25.04
2023-05-01T04:56:13.440Z,25.04
2023-05-01T04:57:13.393Z,25.04
2023-05-01T04:58:13.330Z,25.04
2023-05-01T04:59:13.296Z,25.04
2023-05-01T05:00:13.237Z,25.04
2023-05-01T05:01:13.226Z,25.06
2023-05-01T05:02:13.152Z,25.03
2023-05-01T05:03:13.175Z,25.03
2023-05-01T05:04:13.288Z,25.03
2023-05-01T05:05:12.989Z,25.04
2023-05-01T05:06:12.983Z,25.03
2023-05-01T05:07:12.891Z,25.04
2023-05-01T05:08:12.841Z,25.03
2023-05-01T05:09:12.797Z,25.02
2023-05-01T05:10:12.746Z,25.03
2023-05-01T05:11:12.692Z,25.06
2023-05-01T05:12:12.650Z,25.04
2023-05-01T05:13:12.597Z,25.04
2023-05-01T05:14:12.551Z,25.06
2023-05-01T05:15:12.525Z,25.04
2023-05-01T05:16:12.554Z,25.04
2023-05-01T05:17:12.442Z,25.04
2023-05-01T05:18:12.432Z,25.03
2023-05-01T05:19:12.336Z,25.00
2023-05-01T05:20:12.286Z,25.03
2023-05-01T05:21:12.253Z,25.06
2023-05-01T05:22:12.206Z,25.03
2023-05-01T05:23:12.149Z,25.03
2023-05-01T05:24:12.092Z,25.03
2023-05-01T05:25:12.043Z,25.04
2023-05-01T05:26:11.992Z,25.03
2023-05-01T05:27:11.941Z,25.04
2023-05-01T05:28:11.885Z,25.03
2023-05-01T05:29:11.819Z,25.06
2023-05-01T05:30:11.771Z,25.03
2023-05-01T05:31:11.736Z,25.06
2023-05-01T05:32:11.718Z,25.04
2023-05-01T05:33:11.658Z,25.04
2023-05-01T05:34:11.574Z,25.04
2023-05-01T05:35:11.535Z,25.03
2023-05-01T05:36:11.479Z,25.06
2023-05-01T05:37:11.436Z,25.04
2023-05-01T05:38:11.366Z,25.04
2023-05-01T05:39:11.310Z,25.04
2023-05-01T05:40:11.270Z,25.06
2023-05-01T05:41:11.226Z,25.06
2023-05-01T05:42:11.180Z,25.04
2023-05-01T05:43:11.118Z,25.04
2023-05-01T05:44:11.076Z,25.06
2023-05-01T05:45:11.021Z,25.06
2023-05-01T05:46:11.099Z,25.06
2023-05-01T05:47:10.930Z,25.03
2023-05-01T05:48:10.953Z,25.04
2023-05-01T05:49:10.842Z,25.04
2023-05-01T05:50:10.793Z,25.07
2023-05-01T05:51:10.739Z,25.04
2023-05-01T05:52:10.686Z,25.06
2023-05-01T05:53:10.641Z,25.04
2023-05-01T05:54:10.592Z,25.07
2023-05-01T05:55:10.532Z,25.03
2023-05-01T05:56:10.510Z,25.07
2023-05-01T05:57:10.450Z,25.06
2023-05-01T05:58:10.432Z,25.04
2023-05-01T05:59:10.348Z,25.04
2023-05-01T06:00:10.293Z,25.07
2023-05-01T06:01:10.223Z,25.09
2023-05-01T06:02:10.215Z,25.09
2023-05-01T06:03:10.185Z,25.10
2023-05-01T06:04:10.077Z,25.07
2023-05-01T06:05:10.104Z,25.07
2023-05-01T06:06:10.248Z,25.07
2023-05-01T06:07:09.935Z,25.10
2023-05-01T06:08:09.892Z,25.09
2023-05-01T06:09:09.848Z,25.07
2023-05-01T06:10:09.815Z,25.07
2023-05-01T06:11:09.741Z,25.10
2023-05-01T06:12:09.701Z,25.07
2023-05-01T06:13:13.652Z,25.09
2023-05-01T06:14:10.530Z,25.07
2023-05-01T06:15:09.430Z,25.10
2023-05-01T06:16:09.356Z,25.09
2023-05-01T06:17:09.230Z,25.10
2023-05-01T06:18:09.284Z,25.11
2023-05-01T06:19:09.023Z,25.09
2023-05-01T06:20:08.906Z,25.10
2023-05-01T06:21:08.799Z,25.09
2023-05-01T06:22:08.716Z,25.10
2023-05-01T06:23:08.646Z,25.10
2023-05-01T06:24:08.567Z,25.11
2023-05-01T06:25:08.496Z,25.09
2023-05-01T06:26:08.437Z,25.09
2023-05-01T06:27:08.397Z,25.11
2023-05-01T06:28:08.344Z,25.14
2023-05-01T06:29:08.282Z,25.10
2023-05-01T06:30:08.245Z,25.14
2023-05-01T06:31:08.263Z,25.11
2023-05-01T06:32:08.141Z,25.11
2023-05-01T06:33:08.126Z,25.11
2023-05-01T06:34:08.015Z,25.11
2023-05-01T06:35:07.979Z,25.13
2023-05-01T06:36:07.915Z,25.13
2023-05-01T06:37:07.876Z,25.11
2023-05-01T06:38:07.784Z,25.13
2023-05-01T06:39:07.756Z,25.10
2023-05-01T06:40:07.682Z,25.13
2023-05-01T06:41:07.641Z,25.14
2023-05-01T06:42:07.574Z,25.13
2023-05-01T06:43:07.518Z,25.11
2023-05-01T06:44:07.484Z,25.13
2023-05-01T06:45:07.411Z,25.13
2023-05-01T06:46:07.356Z,25.13
2023-05-01T06:47:07.399Z,25.14
2023-05-01T06:48:07.337Z,25.13
2023-05-01T06:49:07.187Z,25.14
2023-05-01T06:50:07.130Z,25.13
2023-05-01T06:51:07.080Z,25.14
2023-05-01T06:52:07.006Z,25.14
2023-05-01T06:53:06.944Z,25.15
2023-05-01T06:54:06.883Z,25.14
2023-05-01T06:55:06.807Z,25.14
2023-05-01T06:56:06.741Z,25.13
2023-05-01T06:57:06.672Z,25.14
2023-05-01T06:58:12.692Z,25.14
2023-05-01T06:59:07.498Z,25.15
2023-05-01T07:00:06.394Z,25.17
2023-05-01T07:01:06.345Z,25.17
2023-05-01T07:02:06.287Z,25.15
2023-05-01T07:03:06.133Z,25.15
2023-05-01T07:04:05.969Z,25.15
2023-05-01T07:05:05.875Z,25.15
2023-05-01T07:06:05.807Z,25.15
2023-05-01T07:07:05.658Z,25.14
2023-05-01T07:08:05.535Z,25.15
2023-05-01T07:09:05.439Z,25.17
2023-05-01T07:10:05.336Z,25.17
2023-05-01T07:11:05.226Z,25.17
2023-05-01T07:12:05.152Z,25.17
2023-05-01T07:13:05.070Z,25.18
2023-05-01T07:14:05.002Z,25.18
2023-05-01T07:15:04.937Z,25.20
2023-05-01T07:16:04.917Z,25.18
2023-05-01T07:17:04.815Z,25.18
2023-05-01T07:18:04.817Z,25.20
2023-05-01T07:19:04.695Z,25.20
2023-05-01T07:20:04.620Z,25.22
2023-05-01T07:21:04.558Z,25.20
2023-05-01T07:22:04.494Z,25.20
2023-05-01T07:23:07.135Z,25.20
2023-05-01T07:24:04.334Z,25.20
2023-05-01T07:25:04.237Z,25.20
2023-05-01T07:26:04.107Z,25.20
2023-05-01T07:27:03.998Z,25.21
2023-05-01T07:28:03.897Z,25.21
2023-05-01T07:29:03.789Z,25.21
2023-05-01T07:30:03.684Z,25.21
2023-05-01T07:31:03.652Z,25.20
2023-05-01T07:32:03.507Z,25.21
2023-05-01T07:33:03.416Z,25.22
2023-05-01T07:34:03.275Z,25.18
2023-05-01T07:35:03.164Z,25.21
2023-05-01T07:36:03.065Z,25.21
2023-05-01T07:37:02.970Z,25.20
2023-05-01T07:38:02.866Z,25.21
2023-05-01T07:39:02.754Z,25.21
2023-05-01T07:40:02.665Z,25.21
2023-05-01T07:41:02.571Z,25.21
2023-05-01T07:42:02.462Z,25.20
2023-05-01T07:43:02.371Z,25.24
2023-05-01T07:44:02.259Z,25.22
2023-05-01T07:45:02.187Z,25.22
2023-05-01T07:46:02.155Z,25.22
2023-05-01T07:47:01.996Z,25.22
2023-05-01T07:48:01.877Z,25.22
2023-05-01T07:49:01.774Z,25.22
2023-05-01T07:50:02.269Z,25.22
2023-05-01T07:51:01.580Z,25.24
2023-05-01T07:52:01.495Z,25.22
2023-05-01T07:53:01.394Z,25.22
2023-05-01T07:54:01.302Z,25.22
2023-05-01T07:55:01.199Z,25.21
2023-05-01T07:56:01.106Z,25.22
2023-05-01T07:57:01.022Z,25.22
2023-05-01T07:58:00.921Z,25.22
2023-05-01T07:59:00.821Z,25.22
2023-05-01T08:00:01.047Z,25.22
2023-05-01T08:01:00.636Z,25.24
2023-05-01T08:02:00.582Z,25.21
2023-05-01T08:03:00.589Z,25.22
2023-05-01T08:04:00.395Z,25.25
2023-05-01T08:05:00.305Z,25.24
2023-05-01T08:06:00.223Z,25.25
2023-05-01T08:07:00.043Z,25.22
2023-05-01T08:07:59.946Z,25.25
2023-05-01T08:08:59.839Z,25.27
2023-05-01T08:10:00.332Z,25.28
2023-05-01T08:10:59.645Z,25.28
2023-05-01T08:11:59.551Z,25.25
2023-05-01T08:12:59.480Z,25.27
2023-05-01T08:13:59.319Z,25.28
2023-05-01T08:14:59.216Z,25.30
2023-05-01T08:15:59.193Z,25.28
2023-05-01T08:16:59.029Z,25.28
2023-05-01T08:17:58.952Z,25.27
2023-05-01T08:18:58.825Z,25.28
2023-05-01T08:19:59.036Z,25.31
2023-05-01T08:20:58.647Z,25.30
2023-05-01T08:21:58.536Z,25.32
2023-05-01T08:22:58.417Z,25.32
2023-05-01T08:23:58.332Z,25.32
2023-05-01T08:24:58.218Z,25.31
2023-05-01T08:25:58.115Z,25.34
2023-05-01T08:26:58.023Z,25.34
2023-05-01T08:27:57.960Z,25.34
2023-05-01T08:28:57.825Z,25.34
2023-05-01T08:29:57.919Z,25.35
2023-05-01T08:30:57.623Z,25.35
2023-05-01T08:31:57.615Z,25.34
2023-05-01T08:32:57.446Z,25.35
2023-05-01T08:33:57.320Z,25.32
2023-05-01T08:34:57.250Z,25.37
2023-05-01T08:35:57.174Z,25.37
2023-05-01T08:36:57.152Z,25.38
2023-05-01T08:37:57.034Z,25.40
2023-05-01T08:38:56.947Z,25.38
2023-05-01T08:39:57.215Z,25.40
2023-05-01T08:40:56.781Z,25.41
2023-05-01T08:41:56.713Z,25.40
2023-05-01T08:42:56.626Z,25.40
2023-05-01T08:43:56.539Z,25.42
2023-05-01T08:44:56.459Z,25.41
2023-05-01T08:45:56.379Z,25.40
2023-05-01T08:46:56.315Z,25.41
2023-05-01T08:47:56.259Z,25.41
2023-05-01T08:48:56.153Z,25.40
2023-05-01T08:49:56.430Z,25.42
2023-05-01T08:50:55.994Z,25.42
2023-05-01T08:51:55.918Z,25.45
2023-05-01T08:52:55.836Z,25.42
2023-05-01T08:53:55.744Z,25.45
2023-05-01T08:54:55.652Z,25.45
2023-05-01T08:55:55.573Z,25.45
2023-05-01T08:56:55.475Z,25.46
2023-05-01T08:57:55.385Z,25.46
2023-05-01T08:58:55.304Z,25.48
2023-05-01T08:59:55.573Z,25.45
2023-05-01T09:00:55.124Z,25.48
2023-05-01T09:01:55.857Z,25.48
2023-05-01T09:02:55.057Z,25.46
2023-05-01T09:03:54.917Z,25.49
2023-05-01T09:04:54.783Z,25.49
2023-05-01T09:05:54.695Z,25.49
2023-05-01T09:06:54.624Z,25.51
2023-05-01T09:07:54.521Z,25.52
2023-05-01T09:08:54.428Z,25.52
2023-05-01T09:09:54.525Z,25.52
2023-05-01T09:10:54.327Z,25.55
2023-05-01T09:11:54.171Z,25.52
2023-05-01T09:12:54.069Z,25.55
2023-05-01T09:13:53.996Z,25.55
2023-05-01T09:14:53.905Z,25.58
2023-05-01T09:15:53.934Z,25.57
2023-05-01T09:16:53.808Z,25.59
2023-05-01T09:17:53.724Z,25.61
2023-05-01T09:18:53.566Z,25.61
2023-05-01T09:19:53.570Z,25.62
2023-05-01T09:20:53.419Z,25.61
2023-05-01T09:21:53.327Z,25.62
2023-05-01T09:22:53.256Z,25.64
2023-05-01T09:23:53.143Z,25.64
2023-05-01T09:24:53.320Z,25.62
2023-05-01T09:25:53.063Z,25.64
2023-05-01T09:26:53.070Z,25.65
2023-05-01T09:27:52.972Z,25.64
2023-05-01T09:28:52.885Z,25.61
2023-05-01T09:29:52.797Z,25.62
2023-05-01T09:30:52.705Z,25.62
2023-05-01T09:31:52.791Z,25.62
2023-05-01T09:32:52.576Z,25.64
2023-05-01T09:33:52.466Z,25.65
2023-05-01T09:34:52.381Z,25.66
2023-05-01T09:35:52.288Z,25.65
2023-05-01T09:36:52.211Z,25.64
2023-05-01T09:37:52.119Z,25.64
2023-05-01T09:38:52.021Z,25.65
2023-05-01T09:39:51.945Z,25.64
2023-05-01T09:40:51.843Z,25.65
2023-05-01T09:41:51.754Z,25.65
2023-05-01T09:42:51.750Z,25.62
2023-05-01T09:43:51.753Z,25.68
2023-05-01T09:44:51.667Z,25.65
2023-05-01T09:45:51.604Z,25.64
2023-05-01T09:46:51.534Z,25.65
2023-05-01T09:47:51.409Z,25.65
2023-05-01T09:48:51.289Z,25.64
2023-05-01T09:49:51.223Z,25.65
2023-05-01T09:50:51.163Z,25.64
2023-05-01T09:51:51.130Z,25.64
2023-05-01T09:52:50.950Z,25.64
2023-05-01T09:53:50.854Z,25.65
2023-05-01T09:54:50.758Z,25.65
2023-05-01T09:55:50.672Z,25.64
2023-05-01T09:56:50.629Z,25.65
2023-05-01T09:57:50.489Z,25.65
2023-05-01T09:58:50.404Z,25.68
2023-05-01T09:59:50.301Z,25.68
2023-05-01T10:00:50.252Z,25.68
2023-05-01T10:01:50.468Z,25.68
2023-05-01T10:02:50.374Z,25.69
2023-05-01T10:03:49.995Z,25.69
2023-05-01T10:04:49.822Z,25.69
2023-05-01T10:05:49.753Z,25.72
2023-05-01T10:06:49.696Z,25.70
2023-05-01T10:07:49.628Z,25.72
2023-05-01T10:08:49.618Z,25.68
2023-05-01T10:09:49.629Z,25.72
2023-05-01T10:10:49.632Z,25.72
2023-05-01T10:11:49.741Z,25.72
2023-05-01T10:12:49.458Z,25.73
2023-05-01T10:13:49.352Z,25.72
2023-05-01T10:14:49.326Z,25.73
2023-05-01T10:15:49.342Z,25.70
2023-05-01T10:16:49.269Z,25.72
2023-05-01T10:17:49.146Z,25.70
2023-05-01T10:18:49.028Z,25.70
2023-05-01T10:19:48.923Z,25.69
2023-05-01T10:20:48.845Z,25.70
2023-05-01T10:21:48.852Z,25.70
2023-05-01T10:22:49.074Z,25.73
2023-05-01T10:23:48.653Z,25.69
2023-05-01T10:24:48.561Z,25.70
2023-05-01T10:25:48.466Z,25.70
2023-05-01T10:26:48.372Z,25.72
2023-05-01T10:27:48.281Z,25.73
2023-05-01T10:28:48.424Z,25.72
2023-05-01T10:29:48.219Z,25.73
2023-05-01T10:30:48.133Z,25.73
2023-05-01T10:31:48.076Z,25.75
2023-05-01T10:32:47.945Z,25.75
2023-05-01T10:33:47.820Z,25.75
2023-05-01T10:34:47.772Z,25.73
2023-05-01T10:35:47.677Z,25.75
2023-05-01T10:36:47.584Z,25.75
2023-05-01T10:37:47.525Z,25.78
2023-05-01T10:38:47.382Z,25.76
2023-05-01T10:39:47.305Z,25.76
2023-05-01T10:40:47.273Z,25.76
2023-05-01T10:41:47.181Z,25.79
2023-05-01T10:42:47.079Z,25.76
2023-05-01T10:43:46.970Z,25.76
2023-05-01T10:44:46.879Z,25.76
2023-05-01T10:45:46.872Z,25.73
2023-05-01T10:46:46.956Z,25.73
2023-05-01T10:47:46.817Z,25.73
2023-05-01T10:48:46.767Z,25.70
2023-05-01T10:49:46.679Z,25.72
2023-05-01T10:50:46.600Z,25.73
2023-05-01T10:51:46.511Z,25.69
2023-05-01T10:52:46.423Z,25.70
2023-05-01T10:53:46.318Z,25.72
2023-05-01T10:54:46.294Z,25.69
2023-05-01T10:55:46.224Z,25.72
2023-05-01T10:56:46.111Z,25.72
2023-05-01T10:57:46.040Z,25.68
2023-05-01T10:58:45.928Z,25.70
2023-05-01T10:59:45.841Z,25.69
2023-05-01T11:00:45.846Z,25.69
2023-05-01T11:01:45.828Z,25.68
2023-05-01T11:02:45.733Z,25.68
2023-05-01T11:03:45.581Z,25.69
2023-05-01T11:04:45.486Z,25.68
2023-05-01T11:05:45.459Z,25.68
2023-05-01T11:06:45.479Z,25.66
2023-05-01T11:07:45.255Z,25.65
2023-05-01T11:08:46.046Z,25.65
2023-05-01T11:09:45.065Z,25.65
2023-05-01T11:10:45.038Z,25.65
2023-05-01T11:11:44.944Z,25.65
2023-05-01T11:12:44.872Z,25.65
2023-05-01T11:13:44.775Z,25.66
2023-05-01T11:14:44.685Z,25.64
2023-05-01T11:15:44.596Z,25.62
2023-05-01T11:16:44.709Z,25.65
2023-05-01T11:17:44.550Z,25.62
2023-05-01T11:18:44.413Z,25.65
2023-05-01T11:19:44.316Z,25.62
2023-05-01T11:20:44.221Z,25.62
2023-05-01T11:21:44.129Z,25.64
2023-05-01T11:22:44.136Z,25.62
2023-05-01T11:23:44.050Z,25.62
2023-05-01T11:24:43.959Z,25.62
2023-05-01T11:25:43.867Z,25.61
2023-05-01T11:26:43.779Z,25.61
2023-05-01T11:27:43.692Z,25.61
2023-05-01T11:28:43.599Z,25.61
2023-05-01T11:29:43.509Z,25.62
2023-05-01T11:30:43.428Z,25.62
2023-05-01T11:31:43.370Z,25.62
2023-05-01T11:32:43.279Z,25.62
2023-05-01T11:33:43.162Z,25.61
2023-05-01T11:34:43.057Z,25.65
2023-05-01T11:35:42.979Z,25.64
2023-05-01T11:36:42.884Z,25.64
2023-05-01T11:37:42.824Z,25.64
2023-05-01T11:38:42.795Z,25.64
2023-05-01T11:39:42.706Z,25.62
2023-05-01T11:40:42.632Z,25.65
2023-05-01T11:41:42.576Z,25.62
2023-05-01T11:42:42.465Z,25.62
2023-05-01T11:43:42.355Z,25.62
2023-05-01T11:44:42.263Z,25.62
2023-05-01T11:45:42.179Z,25.59
2023-05-01T11:46:42.065Z,25.59
2023-05-01T11:47:42.022Z,25.61
2023-05-01T11:48:41.904Z,25.57
2023-05-01T11:49:41.791Z,25.59
2023-05-01T11:50:41.691Z,25.58
2023-05-01T11:51:41.617Z,25.57
2023-05-01T11:52:41.527Z,25.57
2023-05-01T11:53:41.411Z,25.57
2023-05-01T11:54:41.333Z,25.55
2023-05-01T11:55:41.243Z,25.53
2023-05-01T11:56:41.168Z,25.53
2023-05-01T11:57:41.078Z,25.55
2023-05-01T11:58:41.095Z,25.52
2023-05-01T11:59:41.004Z,25.53
2023-05-01T12:00:40.910Z,25.52
2023-05-01T12:01:40.839Z,25.51
2023-05-01T12:02:40.766Z,25.52
2023-05-01T12:03:40.717Z,25.51
2023-05-01T12:04:40.688Z,25.51
2023-05-01T12:05:40.549Z,25.52
2023-05-01T12:06:40.549Z,25.49
2023-05-01T12:07:40.368Z,25.48
2023-05-01T12:08:40.282Z,25.48
2023-05-01T12:09:40.199Z,25.48
2023-05-01T12:10:40.125Z,25.46
2023-05-01T12:11:40.003Z,25.46
2023-05-01T12:12:39.907Z,25.46
2023-05-01T12:13:39.859Z,25.45
2023-05-01T12:14:39.774Z,25.46
2023-05-01T12:15:39.693Z,25.45
2023-05-01T12:16:39.597Z,25.44
2023-05-01T12:17:39.528Z,25.42
2023-05-01T12:18:39.441Z,25.45
2023-05-01T12:19:39.320Z,25.41
2023-05-01T12:20:39.236Z,25.45
2023-05-01T12:21:39.158Z,25.41
2023-05-01T12:22:39.046Z,25.42
2023-05-01T12:23:39.006Z,25.42
2023-05-01T12:24:38.897Z,25.40
2023-05-01T12:25:38.820Z,25.40
2023-05-01T12:26:38.717Z,25.38
2023-05-01T12:27:38.624Z,25.41
2023-05-01T12:28:38.556Z,25.40
2023-05-01T12:29:38.454Z,25.41
2023-05-01T12:30:38.352Z,25.37
2023-05-01T12:31:38.351Z,25.38
2023-05-01T12:32:38.216Z,25.40
2023-05-01T12:33:38.140Z,25.40
2023-05-01T12:34:37.962Z,25.38
2023-05-01T12:35:37.878Z,25.35
2023-05-01T12:36:37.829Z,25.38
2023-05-01T12:37:37.756Z,25.38
2023-05-01T12:38:37.673Z,25.37
2023-05-01T12:39:37.589Z,25.37
2023-05-01T12:40:37.488Z,25.38
2023-05-01T12:41:37.395Z,25.37
2023-05-01T12:42:37.313Z,25.37
2023-05-01T12:43:37.312Z,25.38
2023-05-01T12:44:37.220Z,25.38
2023-05-01T12:45:37.127Z,25.37
2023-05-01T12:46:37.036Z,25.35
2023-05-01T12:47:36.989Z,25.34
2023-05-01T12:48:36.867Z,25.35
2023-05-01T12:49:36.781Z,25.34
2023-05-01T12:50:36.702Z,25.37
2023-05-01T12:51:36.616Z,25.35